Flight Track Log - Related Links

Times and Time Zones

All times are in EDT time to prevent confusion due to time zone crossing. See the CTL13 flight status page for this flight to view local times or setup timezone preferences in your user account.

Time Position Orientation Groundspeed Altitude Reporting Facility
EDT Latitude Longitude Course Direction KTS MPH feet Rate Location/Type
Mon 08:47:06 PM 39.9000 -86.3000 323° Northwest 172 198 2,100  Level Indianapolis TRACON
Mon 08:48:13 PM 39.9517 -86.3069 354° North 169 194 2,800 605 Climbing Chicago Center
Mon 08:49:15 PM 39.9969 -86.3250 343° North 169 194 3,400 581 Climbing Chicago Center
Mon 08:50:17 PM 40.0519 -86.3367 351° North 170 196 4,000 242 Climbing Chicago Center
Mon 08:51:19 PM 40.1011 -86.3511 347° North 174 200 3,900 -435 Descending Chicago Center
Mon 08:52:21 PM 40.1558 -86.3669 348° North 188 216 3,100 -387 Descending Chicago Center
Mon 08:53:23 PM 40.2136 -86.3625 North 200 230 3,100 -64 Level Chicago Center
Mon 08:53:55 PM 40.2419 -86.3583 North 192 221 3,000  Descending Chicago Center
Mon 08:54:25 PM 40.2664 -86.3558 North 194 223 3,100 100 Climbing Chicago Center
Mon 08:54:55 PM 40.2922 -86.3503 North 189 217 3,100  Level Chicago Center
Mon 08:55:27 PM 40.3183 -86.3494 North 189 217 3,100  Level Chicago Center
Mon 08:55:56 PM 40.3467 -86.3453 North 189 217 3,100 -97 Level Chicago Center
Mon 08:56:29 PM 40.3711 -86.3428 North 188 216 3,000 -98 Descending Chicago Center
Mon 08:56:57 PM 40.3972 -86.3372 North 187 215 3,000 97 Level Chicago Center
Mon 08:57:31 PM 40.4311 -86.3336 North 187 215 3,100 100 Climbing Chicago Center
Mon 08:57:57 PM 40.4514 -86.3322 North 185 213 3,100  Level Chicago Center
Mon 08:58:33 PM 40.4833 -86.3314 North 185 213 3,100  Level Chicago Center
Mon 08:58:58 PM 40.5036 -86.3325 358° North 182 209 3,100  Level Chicago Center
Mon 08:59:35 PM 40.5333 -86.3325 360° North 182 209 3,100  Level Chicago Center
Mon 08:59:58 PM 40.5517 -86.3325 360° North 180 207 3,100 -97 Level Chicago Center
Mon 09:00:37 PM 40.5833 -86.3278 North 180 207 3,000 -98 Descending Chicago Center
Mon 09:00:59 PM 40.6042 -86.3192 17° North 185 213 3,000 97 Level Chicago Center
Mon 09:01:39 PM 40.6358 -86.3178 North 184 212 3,100 98 Climbing Chicago Center
Mon 09:02:00 PM 40.6522 -86.3247 342° North 178 205 3,100  Level Chicago Center
Mon 09:03:00 PM 40.6994 -86.3439 343° North 171 197 3,100  Level Chicago Center
Mon 09:03:43 PM 40.7231 -86.3542 342° North 198 228 3,100  Level Chicago Center
Mon 09:04:01 PM 40.7425 -86.3628 341° North 165 190 3,100  Level Chicago Center
Mon 09:04:45 PM 40.7697 -86.3761 340° North 168 193 3,100 -100 Level Chicago Center
Mon 09:05:01 PM 40.7878 -86.3875 334° Northwest 168 193 3,000 -97 Descending Chicago Center
Mon 09:05:47 PM 40.8192 -86.3989 345° North 170 196 3,000 98 Level Chicago Center
Mon 09:06:02 PM 40.8308 -86.4064 334° Northwest 171 197 3,100 581 Climbing Chicago Center
Mon 09:06:49 PM 40.8619 -86.4186 343° North 167 192 3,600 550 Climbing Chicago Center
Mon 09:07:51 PM 40.9014 -86.4389 339° North 162 186 4,100 242 Climbing Chicago Center
Mon 09:08:53 PM 40.9408 -86.4581 340° North 156 180 4,100  Level Chicago Center
Mon 09:09:56 PM 40.9847 -86.4811 338° Northwest 159 183 4,100 -48 Level Chicago Center
Mon 09:10:57 PM 41.0306 -86.5064 337° Northwest 169 194 4,000 -49 Descending Chicago Center
Mon 09:11:59 PM 41.0742 -86.5283 339° North 169 194 4,000  Level Chicago Center
Mon 09:13:01 PM 41.1281 -86.5547 340° North 171 197 4,000 48 Level Chicago Center
Mon 09:14:03 PM 41.1722 -86.5772 339° North 169 194 4,100  Climbing Chicago Center
Mon 09:15:04 PM 41.2169 -86.5997 339° North 171 197 4,000 -49 Descending Chicago Center
Mon 09:16:06 PM 41.2625 -86.6214 340° North 173 199 4,000  Level Chicago Center
Mon 09:17:08 PM 41.2861 -86.6656 305° West 165 190 4,000  Level Chicago Center
Mon 09:18:10 PM 41.3022 -86.7267 289° West 155 178 4,000  Level Chicago Center
Mon 09:19:12 PM 41.3172 -86.7797 291° West 154 177 4,000  Level Chicago Center
Mon 09:20:14 PM 41.3317 -86.8333 290° West 155 178 4,000  Level Chicago Center
Mon 09:21:16 PM 41.3458 -86.8844 290° West 151 174 4,000  Level Chicago Center
Mon 09:22:18 PM 41.3611 -86.9492 287° West 153 176 4,000  Level Chicago Center
Mon 09:23:20 PM 41.3747 -87.0022 289° West 153 176 4,000  Level Chicago Center
Mon 09:24:21 PM 41.3886 -87.0547 289° West 151 174 4,000  Level Chicago Center
Mon 09:25:23 PM 41.4022 -87.1069 289° West 151 174 4,000  Level Chicago Center
Mon 09:26:21 PM 41.4167 -87.1667 288° West 153 176 4,000  Level Chicago TRACON
Mon 09:27:21 PM 41.4333 -87.2167 294° West 155 178 4,000  Level Chicago TRACON
Mon 09:28:33 PM 41.4500 -87.2667 294° West 154 177 4,000  Level Chicago TRACON
Mon 09:29:27 PM 41.4667 -87.3167 294° West 154 177 4,000  Level Chicago TRACON
Mon 09:30:27 PM 41.5000 -87.3667 312° West 155 178 4,000  Level Chicago TRACON
Mon 09:31:34 PM 41.5158 -87.4222 291° West 154 177 4,000  Level Chicago Center
Mon 09:32:36 PM 41.5361 -87.4725 298° West 155 178 4,000  Level Chicago Center
Mon 09:33:38 PM 41.5539 -87.5256 294° West 157 181 4,000  Level Chicago Center
Mon 09:34:39 PM 41.5669 -87.5917 285° West 156 180 4,000 -98 Level Chicago Center
Mon 09:35:41 PM 41.5803 -87.6458 288° West 155 178 3,800 -484 Descending Chicago Center
Mon 09:36:43 PM 41.5953 -87.7078 288° West 164 189 3,000 -390 Descending Chicago Center
Mon 09:37:44 PM 41.6106 -87.7717 288° West 174 200 3,000  Level Chicago Center
Mon 09:38:46 PM 41.6256 -87.8303 289° West 174 200 3,000  Level Chicago Center
Mon 09:39:16 PM 41.6333 -87.8667 286° West 177 204 3,000 -286 Level Chicago TRACON
Mon 09:40:10 PM 41.6833 -87.8667 360° North 190 219 2,600 -263 Descending Chicago TRACON
Mon 09:41:10 PM 41.7167 -87.8333 37° Northeast 170 196 2,500 -450 Descending Chicago TRACON
Mon 09:42:10 PM 41.7500 -87.8000 37° Northeast 135 155 1,700 -549 Descending Chicago TRACON
Mon 09:43:54 PM 41.7906 -87.7478 44° Northeast 137 158 1,000 -404 Descending Chicago Center

Login

Don't have an account? Register now (free) for customized features, flight alerts, and more!